Aviation Digital Data Service (ADDS)

Output produced by METARs form (0237 UTC 22 July 2017)
found at http://www.aviationweather.gov/adds/metars/
 
TAF FYWE 211700Z 2118/2203 00000KT CAVOK 
     BECMG 2122/2124 27003KT 
       
TAF FYGF 211700Z 2118/2203 15004KT CAVOK
       
FYWH 220200Z AUTO 27008KT //// // ////// 06/M09 Q1024
TAF FYWH 211600Z 2118/2224 11003KT CAVOK 
     BECMG 2119/2121 30003KT 
     BECMG 2200/2202 06003KT 
     BECMG 2208/2210 32006KT 
     BECMG 2219/2221 24005KT 
     BECMG 2222/2224 06004KT 
       
FYKT 220200Z AUTO 32004KT //// // ////// 12/M12 Q1018
TAF FYKT 211600Z 2118/2224 36009KT CAVOK 
     BECMG 2210/2212 25009KT 
     BECMG 2218/2220 18007KT 
       
FYLZ 220200Z AUTO 21005KT //// // ////// 09/07 Q1015
TAF FYLZ 211700Z 2118/2203 22010KT CAVOK
       
FYML 220200Z AUTO 10003KT //// // ////// 08/M11 Q1021
TAF FYOA 211700Z 2118/2203 16005KT CAVOK
       
TAF FYOG 211700Z 2118/2203 18003KT CAVOK
       
FYRU 220200Z AUTO 15001KT //// // ////// 08/M00 Q1023
TAF FYRU 211700Z 2118/2203 07004KT CAVOK
       
FYWB 220200Z AUTO 02009KT //// // ////// 10/09 Q1017
TAF FYWB 211600Z 2118/2224 29007KT CAVOK 
     BECMG 2119/2121 17005KT 9999 BKN015 
     PROB30 
     TEMPO 2121/2204 06004KT 0900 FG OVC010 
     BECMG 2208/2210 9999 BKN015 
     BECMG 2211/2213 25007KT CAVOK 
     BECMG 2219/2221 9999 BKN013 
     TEMPO 2222/2224 06003KT 0900 FG OVC012